Fair Oaks Ranch, Texas
Current Conditions -  °F | °C
As of 3:15 PM on Sunday 23 Nov 2014 (Local Time) from K5C1 Reporting Station
Clear Clear  
Wind Chill: 79°   Ceiling: Unl
Heat Index: 79°   Visibility: 10mi
Dew Point: 36°   Wind: 14mph
Humidity: 21%   Direction: 250°WSW
Pressure: 29.6"   Gusts: 18mph
Location:  29.7214°N, 98.6455°W
Report Text: K5C1 232115Z AUTO 25012G16KT 210V280 10SM CLR 26/02 A2960 RMK AO1
Loading
Personal Weather Stations






























Interactive Weather Map New forecast layout! Learn more

10-Day Weather Forecast

Advertisements
Track Severe Weather on mobile